Oscar, LA

11:22 AM CST on January 21, 2017 (GMT -0600)
Alma Plantation | | Change Station
Active Advisory: Small Craft Advisory

Elev 35 ft 30.59 °N, 91.39 °W | Updated 1 minute ago

Mostly Cloudy
Mostly Cloudy
67.5 °F
Feels Like 67.5 °F
N
12.0
Wind Variable Wind from SE

Today
High -- | Low -- °F
--% Chance of Precip.
Yesterday
High -- | Low -- °F
Precip. -- in
Pressure 29.69 in
Visibility 10.0 miles
Clouds Overcast 3300 ft
Dew Point 57 °F
Humidity 70%
Rainfall 3.19 in
Snow Depth Not available.
7:02 AM 5:32 PM
Waning Crescent, 33% visible
METAR KHZR 211715Z AUTO 14007KT 10SM OVC033 20/15 A2969 RMK AO2 T01970148
Pressure 29.69 in
Visibility 10.0 miles
Clouds Overcast 3300 ft
Dew Point 57 °F
Humidity 70%
Rainfall 3.19 in
Snow Depth Not available.
7:02 AM 5:32 PM
Waning Crescent, 33% visible
METAR KHZR 211715Z AUTO 14007KT 10SM OVC033 20/15 A2969 RMK AO2 T01970148

Get Your Daily Forecast Email!

Thanks for signing up!

Be on the lookout for a verification email in your inbox.

You'll start receiving the daily forecast at 8 AM.

×

10-Day Weather Forecast

Almanac

Astronomy

Jan. 21, 2017 Rise Set
Actual Time
Civil Twilight
Nautical Twilight
Astronomical Twilight
Moon
Length of Visible Light
Length of Day
Tomorrow will be .
, % of the Moon is Illuminated

Today's Extremes

State Highs State Lows

Community

WunderPhotos

Upload Photos

1,962,540 photos uploaded!

WunderBlog® & News

Nearby

Air Quality

  Air Quality AQ Index Pollutant
Not available.

Snow Depth

Station Depth Elevation

Earthquake Activity

City Distance Mag. Time & Date
Minimum magnitude displayed is 2.5.

Coastal Water Temperatures

Place Temperature

Stations

Nearby Weather Stations

Station Location Temp. Windchill Dew Point Humidity Wind Precip. Elev Updated Type
                   

Watches & Warnings

Small Craft Advisory
Issued: 9:27 AM CST Jan. 21, 2017 – National Weather Service

... Small Craft Advisory remains in effect from 3 am to 6 PM CST
Sunday...

* winds... winds increasing to 15 to 25 knots with gusts to 40
knots.

* Waves/seas... extremely rough.

Precautionary/preparedness actions...

A Small Craft Advisory means that wind speeds of 21 to 33 knots
are expected to produce hazardous wave conditions to small craft.
Inexperienced mariners... especially those operating smaller
vessels should avoid navigating in these conditions.




927 am CST Sat Jan 21 2017

... Small Craft Advisory remains in effect from 3 am to 6 PM CST
Sunday...

* winds... winds increasing to 15 to 25 knots with gusts to 40
knots.

* Waves/seas... extremely rough.

Precautionary/preparedness actions...

A Small Craft Advisory means that wind speeds of 21 to 33 knots
are expected to produce hazardous wave conditions to small craft.
Inexperienced mariners... especially those operating smaller
vessels should avoid navigating in these conditions.